Time;durP1;ratioP1;P1;durP2;ratioP2;P2;SDS_P1;SDS_P2;PMS_P1;PMS_P2;Temp;Humidity;BMP_temperature;BMP_pressure;BME280_temperature;BME280_humidity;BME280_pressure;Samples;Min_cycle;Max_cycle;Signal;HPM_P1;HPM_P2
2022/12/10 00:01:50;;;;;;;1.77;1.33;;;-2.30;99.90;;;;;;5060043;28;20052;-75
2022/12/10 00:04:16;;;;;;;2.55;2.35;;;-2.20;99.90;;;;;;5060717;28;20056;-74
2022/12/10 00:06:42;;;;;;;3.90;1.40;;;-2.10;99.90;;;;;;5062670;28;20048;-73
2022/12/10 00:09:11;;;;;;;1.63;1.52;;;-2.00;99.90;;;;;;5062479;28;20053;-73
2022/12/10 00:11:38;;;;;;;2.53;2.33;;;-1.90;99.90;;;;;;5057968;28;20041;-75
2022/12/10 00:14:06;;;;;;;5.33;3.43;;;-1.80;99.90;;;;;;5062582;28;20040;-74
2022/12/10 00:16:36;;;;;;;2.10;1.90;;;-1.80;99.90;;;;;;5062914;28;20052;-74
2022/12/10 00:19:02;;;;;;;1.03;1.03;;;-1.70;99.90;;;;;;5062771;28;20080;-74
2022/12/10 00:21:34;;;;;;;0.77;0.77;;;-1.70;99.90;;;;;;5062662;28;20051;-74
2022/12/10 00:24:00;;;;;;;1.00;0.97;;;-1.70;99.90;;;;;;5051777;28;20052;-74
2022/12/10 00:26:31;;;;;;;1.23;1.13;;;-1.80;99.90;;;;;;5062589;28;20068;-74
2022/12/10 00:28:57;;;;;;;1.83;1.73;;;-1.70;99.90;;;;;;5062967;28;20397;-74
2022/12/10 00:31:26;;;;;;;4.55;2.70;;;-1.70;99.90;;;;;;5063202;28;20045;-75
2022/12/10 00:33:57;;;;;;;0.80;0.80;;;-1.80;99.90;;;;;;5046208;28;20421;-74
2022/12/10 00:36:26;;;;;;;0.23;0.23;;;-1.90;99.90;;;;;;5062525;28;20070;-75
2022/12/10 00:38:52;;;;;;;0.20;0.20;;;-1.90;99.90;;;;;;5062284;28;20069;-75
2022/12/10 00:41:18;;;;;;;8.98;1.90;;;-1.80;99.90;;;;;;5062522;28;20131;-74
2022/12/10 00:43:44;;;;;;;3.40;1.30;;;-1.80;99.90;;;;;;5062100;28;20123;-74
2022/12/10 00:46:11;;;;;;;3.20;2.10;;;-1.90;99.90;;;;;;5062020;28;20494;-73
2022/12/10 00:48:37;;;;;;;3.30;1.20;;;-2.00;99.90;;;;;;5062435;28;20036;-74
2022/12/10 00:51:05;;;;;;;2.57;1.80;;;-2.10;99.90;;;;;;5060893;28;20048;-74
2022/12/10 00:53:33;;;;;;;0.10;0.10;;;-2.20;99.90;;;;;;5062508;28;20087;-74
2022/12/10 00:55:59;;;;;;;2.50;2.30;;;-2.20;99.90;;;;;;5062020;28;20562;-74
2022/12/10 00:58:30;;;;;;;5.63;2.43;;;-2.30;99.90;;;;;;5046346;28;20066;-74
2022/12/10 01:01:16;;;;;;;1.83;1.73;;;-2.40;99.90;;;;;;5066732;28;20036;-74
2022/12/10 01:03:42;;;;;;;1.52;1.42;;;-2.50;99.90;;;;;;5066649;28;20049;-75
2022/12/10 01:06:18;;;;;;;0.30;0.30;;;-2.60;99.90;;;;;;5066502;28;20040;-75
2022/12/10 01:08:45;;;;;;;2.22;1.70;;;-2.70;99.90;;;;;;5066302;28;20048;-74
2022/12/10 01:11:13;;;;;;;1.80;0.98;;;-2.70;99.90;;;;;;5066370;28;20048;-73
2022/12/10 01:13:40;;;;;;;1.00;0.97;;;-2.80;99.90;;;;;;5065924;28;20045;-73
2022/12/10 01:16:08;;;;;;;6.33;2.63;;;-2.80;99.90;;;;;;5065985;28;20047;-74
2022/12/10 01:18:34;;;;;;;2.43;2.23;;;-2.90;99.90;;;;;;5066224;28;20048;-75
2022/12/10 01:21:10;;;;;;;1.70;1.30;;;-2.90;99.90;;;;;;5066289;28;20123;-74
2022/12/10 01:23:37;;;;;;;1.23;1.15;;;-2.90;99.90;;;;;;5066430;28;20045;-74
2022/12/10 01:26:05;;;;;;;0.70;0.50;;;-2.80;99.90;;;;;;5048169;28;20129;-74
2022/12/10 01:28:33;;;;;;;0.20;0.20;;;-2.80;99.90;;;;;;5065812;28;20056;-74
2022/12/10 01:31:03;;;;;;;0.77;0.77;;;-2.80;99.90;;;;;;5066474;28;20044;-74
2022/12/10 01:33:30;;;;;;;49.63;3.07;;;-2.80;99.90;;;;;;5066207;28;20067;-74
2022/12/10 01:35:56;;;;;;;1.60;1.50;;;-2.80;99.90;;;;;;5065814;28;20036;-74
2022/12/10 01:38:22;;;;;;;3.67;2.03;;;-2.80;99.90;;;;;;5065853;28;20045;-74
2022/12/10 01:40:48;;;;;;;1.17;1.03;;;-2.90;99.90;;;;;;5065916;28;20593;-74
2022/12/10 01:43:14;;;;;;;2.10;1.60;;;-2.90;99.90;;;;;;5065740;28;20049;-73
2022/12/10 01:45:40;;;;;;;1.07;1.07;;;-2.90;99.90;;;;;;5065825;28;20125;-74
2022/12/10 01:48:06;;;;;;;1.33;1.23;;;-2.90;99.90;;;;;;5065836;28;20052;-74
2022/12/10 01:50:32;;;;;;;1.60;1.50;;;-2.90;99.90;;;;;;5066238;28;20066;-74
2022/12/10 01:52:58;;;;;;;1.30;1.13;;;-2.90;99.90;;;;;;5065615;28;20413;-74
2022/12/10 01:55:47;;;;;;;2.00;1.60;;;-2.90;99.90;;;;;;5065564;28;20048;-74
2022/12/10 01:58:16;;;;;;;1.37;0.77;;;-2.90;99.90;;;;;;5065726;28;20052;-75
2022/12/10 02:01:09;;;;;;;1.53;1.43;;;-2.90;99.90;;;;;;5065810;28;20394;-73
2022/12/10 02:04:14;;;;;;;3.60;2.63;;;-3.00;99.90;;;;;;5008131;28;20453;-75
2022/12/10 02:07:06;;;;;;;0.30;0.30;;;-3.00;99.90;;;;;;5045417;28;20049;-75
2022/12/10 02:09:44;;;;;;;0.43;0.43;;;-3.00;99.90;;;;;;5041613;28;20075;-74
2022/12/10 02:12:19;;;;;;;2.13;2.03;;;-3.00;99.90;;;;;;5065047;28;20114;-75
2022/12/10 02:15:00;;;;;;;1.65;1.55;;;-3.10;99.90;;;;;;5065160;28;20052;-76
2022/12/10 02:17:59;;;;;;;1.57;1.47;;;-2.60;99.90;;;;;;5065157;28;20076;-75
2022/12/10 02:20:39;;;;;;;0.43;0.43;;;-3.10;99.90;;;;;;5065207;28;20104;-74
2022/12/10 02:23:12;;;;;;;5.83;2.30;;;-3.10;99.90;;;;;;5065328;28;20150;-75
2022/12/10 02:25:49;;;;;;;0.07;0.07;;;-3.10;99.90;;;;;;5065631;28;20051;-75
2022/12/10 02:28:52;;;;;;;0.80;0.80;;;-3.10;99.90;;;;;;5052811;28;20067;-74
2022/12/10 02:31:24;;;;;;;6.70;2.33;;;-3.10;99.90;;;;;;5065218;28;20060;-74
2022/12/10 02:33:55;;;;;;;2.33;1.23;;;-3.10;99.90;;;;;;5065188;28;20428;-75
2022/12/10 02:36:23;;;;;;;3.40;3.20;;;-3.20;99.90;;;;;;5065197;28;20079;-74
2022/12/10 02:38:51;;;;;;;1.60;1.50;;;-3.20;99.90;;;;;;5064788;28;20104;-74
2022/12/10 02:41:23;;;;;;;0.53;0.53;;;-3.20;99.90;;;;;;5064463;28;20055;-74
2022/12/10 02:43:52;;;;;;;0.43;0.40;;;-3.20;99.90;;;;;;5065236;28;20048;-75
2022/12/10 02:46:19;;;;;;;2.00;1.90;;;-3.30;99.90;;;;;;5064700;28;20413;-75
2022/12/10 02:48:47;;;;;;;1.23;1.13;;;-3.20;99.90;;;;;;5064735;28;20111;-74
2022/12/10 02:51:13;;;;;;;1.87;1.77;;;-3.30;99.90;;;;;;5064484;28;20045;-74
2022/12/10 02:53:45;;;;;;;1.43;1.23;;;-3.30;99.90;;;;;;5063957;28;20041;-75
2022/12/10 02:56:24;;;;;;;1.20;1.03;;;-3.40;99.90;;;;;;5063927;28;20149;-75
2022/12/10 02:59:16;;;;;;;3.33;2.22;;;-3.30;99.90;;;;;;5064407;28;20474;-75
2022/12/10 03:02:07;;;;;;;0.32;0.32;;;-3.30;99.90;;;;;;5063992;28;20071;-75
2022/12/10 03:04:41;;;;;;;1.00;0.90;;;-3.30;99.90;;;;;;5064140;28;20106;-74
2022/12/10 03:07:14;;;;;;;1.97;1.87;;;-3.30;99.90;;;;;;5064449;28;20052;-74
2022/12/10 03:09:56;;;;;;;0.10;0.10;;;-3.30;99.90;;;;;;5064029;28;20578;-74
2022/12/10 03:12:29;;;;;;;5.03;3.00;;;-3.30;99.90;;;;;;5064308;28;20051;-74
2022/12/10 03:15:00;;;;;;;2.50;1.97;;;-3.30;99.90;;;;;;5064251;28;20055;-75
2022/12/10 03:17:30;;;;;;;0.27;0.27;;;-3.30;99.90;;;;;;5064471;28;20075;-74
2022/12/10 03:19:58;;;;;;;0.00;0.00;;;-3.30;99.90;;;;;;5063487;28;20570;-74
2022/12/10 03:22:23;;;;;;;3.20;2.33;;;-3.30;99.90;;;;;;5062973;28;20040;-74
2022/12/10 03:24:50;;;;;;;2.83;1.02;;;-3.30;99.90;;;;;;5063091;28;20398;-75
2022/12/10 03:27:18;;;;;;;0.57;0.57;;;-3.30;99.90;;;;;;5045400;28;20508;-73
2022/12/10 03:29:54;;;;;;;3.60;3.40;;;-3.30;99.90;;;;;;5045582;28;20404;-73
2022/12/10 03:32:24;;;;;;;1.00;1.00;;;-3.30;99.90;;;;;;5063235;28;20048;-74
2022/12/10 03:34:53;;;;;;;5.93;4.70;;;-3.30;99.90;;;;;;5060357;28;20048;-74
2022/12/10 03:37:20;;;;;;;5.30;1.50;;;-3.30;99.90;;;;;;5082354;28;20493;-74
2022/12/10 03:39:46;;;;;;;4.33;3.10;;;-3.40;99.90;;;;;;5083371;28;20044;-74
2022/12/10 03:42:12;;;;;;;2.57;1.80;;;-3.50;99.90;;;;;;5063801;28;20059;-74
2022/12/10 03:44:40;;;;;;;0.87;0.87;;;-3.60;99.90;;;;;;5063549;28;20414;-74
2022/12/10 03:47:08;;;;;;;0.40;0.40;;;-3.60;99.90;;;;;;5063644;28;20057;-73
2022/12/10 03:49:34;;;;;;;0.80;0.80;;;-3.60;99.90;;;;;;5063670;28;20055;-74
2022/12/10 03:51:59;;;;;;;1.20;1.13;;;-3.80;99.90;;;;;;5063230;28;20115;-74
2022/12/10 03:54:25;;;;;;;0.43;0.43;;;-3.70;99.90;;;;;;5063097;28;20168;-74
2022/12/10 03:56:51;;;;;;;3.73;3.43;;;-3.80;99.90;;;;;;5063396;28;20036;-74
2022/12/10 03:59:17;;;;;;;3.13;2.83;;;-3.80;99.90;;;;;;5063184;28;20177;-74
2022/12/10 04:01:42;;;;;;;0.10;0.10;;;-3.70;99.90;;;;;;5062936;28;20491;-74
2022/12/10 04:04:08;;;;;;;0.43;0.43;;;-3.80;99.90;;;;;;5062902;28;20051;-74
2022/12/10 04:06:37;;;;;;;1.73;1.63;;;-3.80;99.90;;;;;;5062725;28;20383;-74
2022/12/10 04:09:02;;;;;;;0.43;0.43;;;-3.70;99.90;;;;;;5063103;28;20040;-74
2022/12/10 04:11:28;;;;;;;2.00;1.27;;;-3.80;99.90;;;;;;5063549;28;20047;-74
2022/12/10 04:16:38;;;;;;;0.77;0.77;;;-3.70;99.90;;;;;;5063470;28;20079;-74
2022/12/10 04:19:07;;;;;;;2.20;2.00;;;-3.70;99.90;;;;;;5062871;28;20036;-74
2022/12/10 04:27:17;;;;;;;0.43;0.43;;;-3.70;99.90;;;;;;5062532;28;20052;-74
2022/12/10 04:29:43;;;;;;;1.20;1.17;;;-3.70;99.90;;;;;;5063421;28;20059;-74
2022/12/10 04:32:08;;;;;;;1.80;1.70;;;-3.70;99.90;;;;;;5062481;28;20052;-73
2022/12/10 04:34:34;;;;;;;13.63;4.67;;;-3.70;99.90;;;;;;5062443;28;20055;-74
2022/12/10 04:37:02;;;;;;;0.10;0.10;;;-3.60;99.90;;;;;;5062802;28;20040;-74
2022/12/10 04:39:27;;;;;;;0.97;0.97;;;-3.50;99.90;;;;;;5062667;28;20049;-74
2022/12/10 04:41:53;;;;;;;0.60;0.43;;;-3.60;99.90;;;;;;5062686;28;20418;-74
2022/12/10 04:44:19;;;;;;;0.20;0.20;;;-3.60;99.90;;;;;;5062958;28;20123;-74
2022/12/10 04:46:45;;;;;;;0.43;0.43;;;-3.70;99.90;;;;;;5061155;28;20102;-74
2022/12/10 04:49:12;;;;;;;6.33;2.43;;;-3.80;99.90;;;;;;5062149;28;20048;-74
2022/12/10 04:51:38;;;;;;;5.53;2.87;;;-3.90;99.90;;;;;;5062269;28;20056;-77
2022/12/10 04:54:04;;;;;;;0.47;0.47;;;-4.10;99.90;;;;;;5062745;28;21072;-74
2022/12/10 04:56:30;;;;;;;0.20;0.20;;;-4.10;99.90;;;;;;5062554;28;20780;-74
2022/12/10 04:58:57;;;;;;;3.83;1.70;;;-4.10;99.90;;;;;;5062771;28;20044;-74
2022/12/10 05:01:23;;;;;;;1.20;1.03;;;-4.00;99.90;;;;;;5062875;28;20048;-75
2022/12/10 05:03:49;;;;;;;0.33;0.33;;;-4.10;99.90;;;;;;5062427;28;20040;-74
2022/12/10 05:06:17;;;;;;;4.13;2.10;;;-4.10;99.90;;;;;;5062668;28;20052;-75
2022/12/10 05:08:43;;;;;;;5.87;2.20;;;-4.10;99.90;;;;;;5063408;28;20052;-75
2022/12/10 05:11:13;;;;;;;1.03;1.03;;;-4.10;99.90;;;;;;5062924;28;20048;-74
2022/12/10 05:13:39;;;;;;;1.53;1.43;;;-4.20;99.90;;;;;;5062746;28;20051;-75
2022/12/10 05:16:07;;;;;;;0.87;0.87;;;-4.20;99.90;;;;;;5062779;28;20036;-75
2022/12/10 05:18:33;;;;;;;3.30;2.33;;;-4.20;99.90;;;;;;5062194;28;20339;-75
2022/12/10 05:21:04;;;;;;;0.73;0.73;;;-4.30;99.90;;;;;;5061990;28;20313;-74
2022/12/10 05:23:30;;;;;;;2.43;2.23;;;-3.90;99.90;;;;;;5062194;28;20059;-74
2022/12/10 05:26:16;;;;;;;4.80;1.60;;;-4.30;99.90;;;;;;5062181;28;20402;-74
2022/12/10 05:28:48;;;;;;;0.60;0.60;;;-4.40;99.90;;;;;;5062369;28;20115;-75
2022/12/10 05:31:20;;;;;;;1.10;1.10;;;-4.40;99.90;;;;;;5062190;28;20044;-74
2022/12/10 05:33:46;;;;;;;0.00;0.00;;;-4.40;99.90;;;;;;5062357;28;20040;-75
2022/12/10 05:36:15;;;;;;;0.63;0.63;;;-4.40;99.90;;;;;;5062839;28;20469;-75
2022/12/10 05:38:42;;;;;;;10.40;1.83;;;-4.30;99.90;;;;;;5043729;28;20075;-75
2022/12/10 05:41:17;;;;;;;0.57;0.50;;;-4.30;99.90;;;;;;5062043;28;20041;-74
2022/12/10 05:43:47;;;;;;;2.17;1.70;;;-4.20;99.90;;;;;;5062657;28;20123;-75
2022/12/10 05:46:19;;;;;;;1.50;1.40;;;-4.30;99.90;;;;;;5031216;28;20152;-75
2022/12/10 05:48:44;;;;;;;1.37;1.27;;;-4.20;99.90;;;;;;5047577;28;20063;-75
2022/12/10 05:51:13;;;;;;;0.80;0.80;;;-4.20;99.90;;;;;;5065650;28;20123;-76
2022/12/10 05:53:39;;;;;;;1.85;1.73;;;-4.20;99.90;;;;;;5066386;28;20044;-73
2022/12/10 05:56:08;;;;;;;0.47;0.47;;;-4.20;99.90;;;;;;5065961;28;20473;-75
2022/12/10 05:58:35;;;;;;;1.63;1.53;;;-4.20;99.90;;;;;;5065981;28;20040;-75
2022/12/10 06:01:05;;;;;;;3.60;1.17;;;-4.20;99.90;;;;;;5066068;28;20377;-73
2022/12/10 06:03:31;;;;;;;4.33;1.10;;;-4.20;99.90;;;;;;5065532;28;20303;-74
2022/12/10 06:05:57;;;;;;;1.40;1.30;;;-4.10;99.90;;;;;;5065954;28;20064;-73
2022/12/10 06:08:23;;;;;;;1.57;1.47;;;-4.00;99.90;;;;;;5065786;28;20143;-74
2022/12/10 06:10:48;;;;;;;2.30;2.10;;;-4.00;99.90;;;;;;5065240;28;20040;-74
2022/12/10 06:13:14;;;;;;;1.70;1.60;;;-3.90;99.90;;;;;;5065683;28;20157;-74
2022/12/10 06:15:41;;;;;;;1.60;1.00;;;-3.80;99.90;;;;;;5066204;28;20044;-74
2022/12/10 06:18:07;;;;;;;2.53;0.83;;;-3.70;99.90;;;;;;5065697;28;20135;-74
2022/12/10 06:20:34;;;;;;;1.37;1.03;;;-3.60;99.90;;;;;;5065963;28;20048;-74
2022/12/10 06:22:59;;;;;;;1.40;1.30;;;-3.50;99.90;;;;;;5065458;28;20052;-75
2022/12/10 06:25:25;;;;;;;1.27;1.17;;;-3.40;99.90;;;;;;5065741;28;20040;-75
2022/12/10 06:27:51;;;;;;;1.45;1.35;;;-3.30;99.90;;;;;;5065432;28;20060;-73
2022/12/10 06:30:16;;;;;;;2.63;2.43;;;-3.30;99.90;;;;;;5065805;28;20482;-75
2022/12/10 06:32:42;;;;;;;2.53;2.33;;;-3.20;99.90;;;;;;5065598;28;20147;-75
2022/12/10 06:35:09;;;;;;;3.40;2.57;;;-3.20;99.90;;;;;;5065536;28;20087;-75
2022/12/10 06:37:35;;;;;;;1.30;1.20;;;-3.10;99.90;;;;;;5065793;28;20402;-75
2022/12/10 06:40:02;;;;;;;0.93;0.80;;;-3.10;99.90;;;;;;5047130;28;20052;-74
2022/12/10 06:42:27;;;;;;;0.50;0.50;;;-3.10;99.90;;;;;;5065265;28;20811;-75
2022/12/10 06:44:53;;;;;;;17.63;5.80;;;-2.90;99.90;;;;;;5065203;28;20075;-75
2022/12/10 06:47:19;;;;;;;0.57;0.57;;;-2.80;99.90;;;;;;5047553;28;20105;-74
2022/12/10 06:49:44;;;;;;;1.00;1.00;;;-2.80;99.90;;;;;;5065338;28;20040;-74
2022/12/10 06:52:16;;;;;;;1.93;0.77;;;-2.70;99.90;;;;;;5064480;28;20070;-74
2022/12/10 06:54:42;;;;;;;2.70;1.63;;;-2.70;99.90;;;;;;5064788;28;20497;-74
2022/12/10 06:57:07;;;;;;;0.10;0.10;;;-2.60;99.90;;;;;;5064807;28;20043;-74
2022/12/10 06:59:33;;;;;;;2.00;1.90;;;-2.50;99.90;;;;;;5064528;28;20135;-75
2022/12/10 07:01:59;;;;;;;4.73;3.63;;;-2.50;99.90;;;;;;5064162;28;20055;-74
2022/12/10 07:04:25;;;;;;;0.43;0.43;;;-2.40;99.90;;;;;;5064628;28;20070;-74
2022/12/10 07:06:50;;;;;;;0.60;0.57;;;-2.50;99.90;;;;;;5064191;28;20210;-74
2022/12/10 07:09:16;;;;;;;3.53;3.23;;;-2.50;99.90;;;;;;5064190;28;20048;-74
2022/12/10 07:11:43;;;;;;;3.37;3.07;;;-2.40;99.90;;;;;;5046250;28;20056;-75
2022/12/10 07:14:15;;;;;;;0.83;0.83;;;-2.30;99.90;;;;;;5046623;28;20402;-75
2022/12/10 07:16:41;;;;;;;4.30;4.00;;;-2.30;99.90;;;;;;5064820;28;20380;-74
2022/12/10 07:19:10;;;;;;;3.93;2.43;;;-2.30;99.90;;;;;;5046456;28;20065;-75
2022/12/10 07:21:37;;;;;;;6.03;3.80;;;-2.30;99.90;;;;;;5063556;28;20490;-75
2022/12/10 07:24:11;;;;;;;80.83;6.40;;;-2.30;99.90;;;;;;5046710;28;20044;-75
2022/12/10 07:26:41;;;;;;;2.67;2.47;;;-2.30;99.90;;;;;;5063905;28;20064;-75
2022/12/10 07:29:09;;;;;;;0.37;0.37;;;-2.20;99.90;;;;;;5064351;28;20474;-75
2022/12/10 07:31:36;;;;;;;0.73;0.73;;;-2.30;99.90;;;;;;5063815;28;20113;-75
2022/12/10 07:34:02;;;;;;;3.00;2.73;;;-2.30;99.90;;;;;;5063800;28;20129;-74
2022/12/10 07:36:28;;;;;;;3.57;3.17;;;-2.20;99.90;;;;;;5057082;28;20076;-75
2022/12/10 07:38:54;;;;;;;2.30;2.13;;;-2.20;99.90;;;;;;5052472;28;20047;-75
2022/12/10 07:41:21;;;;;;;8.65;4.85;;;-2.20;99.90;;;;;;5053256;28;20455;-75
2022/12/10 07:43:47;;;;;;;2.03;1.93;;;-2.20;99.90;;;;;;5056605;28;20040;-75
2022/12/10 07:46:17;;;;;;;0.30;0.30;;;-2.20;99.90;;;;;;5061970;28;20044;-75
2022/12/10 07:48:44;;;;;;;1.87;1.77;;;-2.20;99.90;;;;;;5061718;28;20055;-74
2022/12/10 07:51:10;;;;;;;1.50;1.47;;;-2.20;99.90;;;;;;5062296;28;20075;-75
2022/12/10 07:53:36;;;;;;;0.30;0.30;;;-2.10;99.90;;;;;;5061957;28;20053;-75
2022/12/10 07:56:03;;;;;;;3.30;3.00;;;-2.10;99.90;;;;;;5037644;28;20044;-75
2022/12/10 07:58:29;;;;;;;2.20;1.90;;;-2.10;99.90;;;;;;5060245;28;20055;-75
2022/12/10 08:00:55;;;;;;;5.67;2.63;;;-2.00;99.90;;;;;;5061804;28;20044;-75
2022/12/10 08:03:21;;;;;;;3.03;2.80;;;-2.00;99.90;;;;;;5062079;28;20071;-75
2022/12/10 08:05:47;;;;;;;1.83;1.73;;;-2.10;99.90;;;;;;5057403;28;21180;-76
2022/12/10 08:08:13;;;;;;;2.73;2.53;;;-2.10;99.90;;;;;;5049536;28;20033;-75
2022/12/10 08:10:39;;;;;;;2.37;2.17;;;-2.00;99.90;;;;;;5052143;28;20040;-75
2022/12/10 08:13:05;;;;;;;8.10;3.47;;;-2.10;99.90;;;;;;5052699;28;20178;-75
2022/12/10 08:15:32;;;;;;;4.40;4.00;;;-2.00;99.90;;;;;;5051342;28;20037;-75
2022/12/10 08:17:58;;;;;;;3.87;3.33;;;-2.00;99.90;;;;;;5052306;28;20507;-75
2022/12/10 08:20:25;;;;;;;2.27;1.70;;;-2.00;99.90;;;;;;5062044;28;20075;-75
2022/12/10 08:22:51;;;;;;;0.13;0.13;;;-2.00;99.90;;;;;;5061786;28;20044;-75
2022/12/10 08:25:17;;;;;;;2.93;2.70;;;-1.90;99.90;;;;;;5061721;28;20131;-75
2022/12/10 08:27:43;;;;;;;1.03;1.03;;;-2.00;99.90;;;;;;5060613;28;20159;-75
2022/12/10 08:30:09;;;;;;;0.80;0.80;;;-1.90;99.90;;;;;;5053019;28;20123;-75
2022/12/10 08:32:34;;;;;;;1.30;1.20;;;-1.90;99.90;;;;;;5053412;28;20047;-74
2022/12/10 08:35:00;;;;;;;3.73;2.07;;;-1.90;99.90;;;;;;5048319;28;20660;-75
2022/12/10 08:37:26;;;;;;;4.60;3.37;;;-1.90;99.90;;;;;;5046334;28;20049;-75
2022/12/10 08:39:52;;;;;;;0.95;0.95;;;-1.80;99.90;;;;;;5053728;28;20607;-75
2022/12/10 08:42:18;;;;;;;1.03;1.03;;;-1.80;99.90;;;;;;5058350;28;20483;-75
2022/12/10 08:44:43;;;;;;;1.80;1.70;;;-1.80;99.90;;;;;;5058109;28;20051;-75
2022/12/10 08:47:09;;;;;;;2.90;2.70;;;-1.80;99.90;;;;;;5059086;28;20527;-75
2022/12/10 08:49:35;;;;;;;1.10;1.00;;;-1.70;99.90;;;;;;5058265;28;20044;-74
2022/12/10 08:52:00;;;;;;;3.70;2.30;;;-1.70;99.90;;;;;;5053525;28;20111;-75
2022/12/10 08:54:26;;;;;;;3.60;0.83;;;-1.60;99.90;;;;;;5058034;28;20097;-75
2022/12/10 08:56:52;;;;;;;5.47;2.30;;;-1.70;99.90;;;;;;5059173;28;20044;-75
2022/12/10 08:59:17;;;;;;;2.10;1.80;;;-1.60;99.90;;;;;;5058572;28;20517;-75
2022/12/10 09:01:43;;;;;;;3.77;3.43;;;-1.60;99.90;;;;;;5058325;28;20051;-75
2022/12/10 09:04:09;;;;;;;2.77;2.20;;;-1.60;99.90;;;;;;5058519;28;20040;-75
2022/12/10 09:06:35;;;;;;;1.03;1.03;;;-1.50;99.90;;;;;;5058447;28;20041;-75
2022/12/10 09:09:01;;;;;;;2.43;2.23;;;-1.50;99.90;;;;;;5057960;28;20066;-75
2022/12/10 09:11:32;;;;;;;0.70;0.70;;;-1.50;99.90;;;;;;5058048;28;20571;-75
2022/12/10 09:13:59;;;;;;;1.13;1.13;;;-1.40;99.90;;;;;;5057841;28;20056;-75
2022/12/10 09:16:32;;;;;;;11.60;4.50;;;-1.30;99.90;;;;;;5058513;28;20044;-75
2022/12/10 09:18:59;;;;;;;0.83;0.83;;;-1.30;99.90;;;;;;5059852;28;20040;-75
2022/12/10 09:21:25;;;;;;;4.90;2.77;;;-1.30;99.90;;;;;;5062339;28;20052;-75
2022/12/10 09:23:51;;;;;;;0.50;0.50;;;-1.30;99.90;;;;;;5061882;28;20053;-75
2022/12/10 09:26:18;;;;;;;5.00;4.60;;;-1.30;99.90;;;;;;5061998;28;20045;-75
2022/12/10 09:28:45;;;;;;;4.93;1.50;;;-1.30;99.90;;;;;;5061591;28;20903;-74
2022/12/10 09:31:12;;;;;;;5.70;3.27;;;-1.30;99.90;;;;;;5062198;28;20056;-74
2022/12/10 09:33:37;;;;;;;1.73;1.63;;;-1.30;99.90;;;;;;5072976;28;20124;-75
2022/12/10 09:36:06;;;;;;;1.90;1.80;;;-1.30;99.90;;;;;;5062238;28;20553;-74
2022/12/10 09:38:37;;;;;;;7.33;3.50;;;-1.20;99.90;;;;;;5061977;28;20113;-75
2022/12/10 09:41:37;;;;;;;2.63;2.43;;;-1.20;99.90;;;;;;5061942;28;20050;-75
2022/12/10 09:44:14;;;;;;;3.10;2.77;;;-1.00;99.90;;;;;;5061887;28;20056;-74
2022/12/10 09:47:01;;;;;;;3.70;3.13;;;-1.00;99.90;;;;;;5062277;28;20044;-75
2022/12/10 09:49:30;;;;;;;;;;;-1.00;99.90;;;;;;5062162;28;20075;-74
2022/12/10 09:51:59;;;;;;;1.27;1.20;;;-1.00;99.90;;;;;;5061318;28;20133;-75
2022/12/10 09:54:34;;;;;;;5.83;4.53;;;-1.00;99.90;;;;;;5061657;28;20072;-75
2022/12/10 09:57:01;;;;;;;0.30;0.30;;;-1.00;99.90;;;;;;5061013;28;20098;-74
2022/12/10 09:59:34;;;;;;;1.20;1.13;;;-1.00;99.90;;;;;;5060668;28;20041;-74
2022/12/10 10:02:16;;;;;;;2.50;2.30;;;-1.00;99.90;;;;;;5060967;28;20048;-74
2022/12/10 10:04:41;;;;;;;2.10;2.00;;;-1.00;99.90;;;;;;5060316;28;20363;-74
2022/12/10 10:07:19;;;;;;;4.83;2.67;;;-1.00;99.90;;;;;;5062007;28;20051;-74
2022/12/10 10:09:45;;;;;;;2.67;2.17;;;-1.00;99.90;;;;;;5064314;28;20048;-74
2022/12/10 10:12:14;;;;;;;5.73;3.30;;;-1.00;99.90;;;;;;5064270;28;20056;-74
2022/12/10 10:14:43;;;;;;;1.87;1.63;;;-0.90;99.90;;;;;;5064317;28;20052;-74
2022/12/10 10:17:31;;;;;;;3.13;2.93;;;-1.00;99.90;;;;;;5061550;28;20367;-73
2022/12/10 10:19:57;;;;;;;2.23;2.13;;;-1.10;99.90;;;;;;5064224;28;20056;-73
2022/12/10 10:22:23;;;;;;;3.27;2.80;;;-1.10;99.90;;;;;;5064150;28;20048;-73
2022/12/10 10:24:49;;;;;;;3.10;2.75;;;-1.20;99.90;;;;;;5045578;28;20128;-73
2022/12/10 10:27:16;;;;;;;3.27;2.63;;;-1.10;99.90;;;;;;5062291;28;20122;-73
2022/12/10 10:29:48;;;;;;;2.00;1.83;;;-1.10;99.90;;;;;;5063262;28;20586;-73
2022/12/10 10:32:35;;;;;;;1.50;1.17;;;-1.10;99.90;;;;;;5063524;28;20126;-73
2022/12/10 10:35:02;;;;;;;7.73;3.90;;;-1.10;99.90;;;;;;5063941;28;20177;-73
2022/12/10 10:37:39;;;;;;;16.07;5.77;;;-1.00;99.90;;;;;;5045225;28;20048;-73
2022/12/10 10:40:05;;;;;;;6.13;3.57;;;-0.90;99.90;;;;;;5061423;28;20040;-73
2022/12/10 10:42:44;;;;;;;15.97;2.30;;;-0.90;99.90;;;;;;5059944;28;20047;-73
2022/12/10 10:45:31;;;;;;;5.83;3.67;;;-0.80;99.90;;;;;;5059467;28;20040;-73
2022/12/10 10:48:17;;;;;;;2.83;1.90;;;-0.80;99.90;;;;;;5060056;28;20430;-74
2022/12/10 10:51:05;;;;;;;2.97;1.45;;;-0.80;99.90;;;;;;5042097;28;20488;-73
2022/12/10 10:53:45;;;;;;;12.97;2.20;;;-0.70;99.90;;;;;;5058916;28;20056;-73
2022/12/10 10:56:29;;;;;;;1.50;1.40;;;-0.70;99.90;;;;;;5048017;28;20051;-73
2022/12/10 10:59:02;;;;;;;16.40;4.60;;;-0.60;99.90;;;;;;5059591;28;20554;-73
2022/12/10 11:01:49;;;;;;;1.95;1.75;;;-0.60;99.90;;;;;;5059387;28;20053;-73
2022/12/10 11:04:18;;;;;;;1.80;1.70;;;-0.60;99.90;;;;;;5059205;28;20088;-73
2022/12/10 11:06:44;;;;;;;1.03;1.03;;;-0.50;99.90;;;;;;5059457;28;20068;-73
2022/12/10 11:09:25;;;;;;;1.43;1.33;;;-0.50;99.90;;;;;;5059158;28;20570;-73
2022/12/10 11:12:00;;;;;;;1.97;1.80;;;-0.40;99.90;;;;;;5058989;28;20044;-73
2022/12/10 11:14:32;;;;;;;2.72;2.50;;;-0.30;99.90;;;;;;5059293;28;20041;-74
2022/12/10 11:17:24;;;;;;;3.38;3.15;;;-0.30;99.90;;;;;;5059226;28;20076;-74
2022/12/10 11:20:14;;;;;;;0.77;0.77;;;-0.20;99.90;;;;;;5059518;28;20055;-74
2022/12/10 11:22:49;;;;;;;2.83;2.67;;;-0.30;99.90;;;;;;5060931;28;20520;-74
2022/12/10 11:25:15;;;;;;;1.95;1.85;;;-0.30;99.90;;;;;;5061382;28;20443;-74
2022/12/10 11:28:05;;;;;;;2.43;2.23;;;-0.30;99.90;;;;;;5060603;28;20057;-75
2022/12/10 11:30:38;;;;;;;1.40;1.30;;;-0.30;99.90;;;;;;5061621;28;20135;-74
2022/12/10 11:33:22;;;;;;;3.63;3.33;;;-0.30;99.90;;;;;;5061013;28;20478;-75
2022/12/10 11:36:06;;;;;;;1.33;1.23;;;-0.40;99.90;;;;;;5061338;28;20076;-75
2022/12/10 11:38:49;;;;;;;0.98;0.98;;;-0.40;99.90;;;;;;5061376;28;20207;-74
2022/12/10 11:41:58;;;;;;;3.20;3.00;;;-0.40;99.90;;;;;;5060711;28;20139;-74
2022/12/10 11:44:23;;;;;;;0.77;0.77;;;-0.40;99.90;;;;;;4959470;28;20548;-75
2022/12/10 11:47:21;;;;;;;7.00;3.10;;;-0.40;99.90;;;;;;4960155;28;20058;-75
2022/12/10 11:50:12;;;;;;;3.07;2.87;;;-0.50;99.90;;;;;;5020711;28;20122;-74
2022/12/10 11:53:07;;;;;;;3.70;2.43;;;-0.40;99.90;;;;;;5041271;28;20053;-75
2022/12/10 11:55:59;;;;;;;1.07;1.00;;;-0.30;99.90;;;;;;5054901;28;20071;-75
2022/12/10 11:58:43;;;;;;;1.63;1.53;;;-0.20;99.90;;;;;;4998027;28;20397;-75
2022/12/10 12:01:20;;;;;;;1.08;1.05;;;-0.20;99.90;;;;;;5040789;28;20061;-75
2022/12/10 12:03:59;;;;;;;1.03;1.00;;;-0.30;99.90;;;;;;5040484;28;20136;-75
2022/12/10 12:07:05;;;;;;;0.87;0.87;;;-0.30;99.90;;;;;;5060309;28;20083;-76
2022/12/10 12:10:03;;;;;;;1.58;1.48;;;-0.30;99.90;;;;;;5060295;28;20322;-75
2022/12/10 12:12:54;;;;;;;2.65;1.88;;;-0.30;99.90;;;;;;5060571;28;20058;-75
2022/12/10 12:15:43;;;;;;;1.13;1.08;;;-0.30;99.90;;;;;;5060886;28;20052;-75
2022/12/10 12:18:17;;;;;;;6.95;2.92;;;-0.30;99.90;;;;;;5060020;28;20127;-75
2022/12/10 12:20:48;;;;;;;1.52;1.42;;;-0.40;99.90;;;;;;5061131;28;20430;-75
2022/12/10 12:23:22;;;;;;;1.48;1.30;;;-0.40;99.90;;;;;;5060360;28;20041;-79
2022/12/10 12:25:56;;;;;;;0.82;0.82;;;-0.50;99.90;;;;;;5060725;28;20417;-75
2022/12/10 12:28:36;;;;;;;3.37;1.73;;;-0.40;99.90;;;;;;5060762;28;20140;-75
2022/12/10 12:31:29;;;;;;;3.07;2.77;;;-0.50;99.90;;;;;;5043168;28;20087;-76
2022/12/10 12:34:02;;;;;;;3.03;2.73;;;-0.50;99.90;;;;;;5060399;28;20327;-75
2022/12/10 12:36:33;;;;;;;0.38;0.38;;;-0.50;99.90;;;;;;5060527;28;20047;-75
2022/12/10 12:39:25;;;;;;;1.33;1.23;;;-0.40;99.90;;;;;;5060272;28;20045;-75
2022/12/10 12:42:03;;;;;;;3.20;2.53;;;-0.30;99.90;;;;;;5060475;28;20048;-75
2022/12/10 12:44:33;;;;;;;0.95;0.95;;;-0.30;99.90;;;;;;5059910;28;20043;-75
2022/12/10 12:47:15;;;;;;;9.00;2.23;;;-0.30;99.90;;;;;;5060231;28;20175;-75
2022/12/10 12:49:42;;;;;;;0.97;0.97;;;-0.20;99.90;;;;;;5060641;28;20068;-75
2022/12/10 12:52:14;;;;;;;2.07;1.93;;;-0.20;99.90;;;;;;5061639;28;20049;-75
2022/12/10 12:54:40;;;;;;;2.35;2.17;;;-0.30;99.90;;;;;;5060956;28;20135;-74
2022/12/10 12:57:15;;;;;;;1.20;1.13;;;-0.30;99.90;;;;;;5060683;28;20703;-74
2022/12/10 12:59:48;;;;;;;1.97;1.33;;;-0.30;99.90;;;;;;5061308;28;20836;-74
2022/12/10 13:02:42;;;;;;;4.43;3.67;;;-0.30;99.90;;;;;;5061203;28;20044;-75
2022/12/10 13:05:22;;;;;;;2.93;1.63;;;-0.30;99.90;;;;;;5060773;28;20048;-75
2022/12/10 13:08:15;;;;;;;1.37;1.27;;;-0.30;99.90;;;;;;5052715;28;20052;-75
2022/12/10 13:10:51;;;;;;;3.30;3.00;;;-0.20;99.90;;;;;;5061521;28;20135;-75
2022/12/10 13:13:31;;;;;;;1.63;1.52;;;-0.20;99.90;;;;;;5061091;28;20044;-75
2022/12/10 13:16:36;;;;;;;5.15;2.40;;;-0.30;99.90;;;;;;5060693;28;20071;-75
2022/12/10 13:19:20;;;;;;;8.18;2.00;;;-0.30;99.90;;;;;;5060952;28;20474;-74